sensor_id;sensor_type;location;lat;lon;timestamp;pressure;altitude;pressure_sealevel;temperature;humidity
69982;BME280;57319;56.274;43.980;2023-05-09T00:00:16;101217.59;;;2.15;63.04
69982;BME280;57319;56.274;43.980;2023-05-09T00:02:42;101215.88;;;2.14;63.12
69982;BME280;57319;56.274;43.980;2023-05-09T00:05:11;101220.88;;;2.12;63.95
69982;BME280;57319;56.274;43.980;2023-05-09T00:07:36;101224.16;;;2.10;64.52
69982;BME280;57319;56.274;43.980;2023-05-09T00:10:03;101224.88;;;2.07;64.50
69982;BME280;57319;56.274;43.980;2023-05-09T00:12:30;101226.50;;;2.05;64.25
69982;BME280;57319;56.274;43.980;2023-05-09T00:14:56;101218.75;;;2.02;64.53
69982;BME280;57319;56.274;43.980;2023-05-09T00:17:23;101219.66;;;2.04;65.59
69982;BME280;57319;56.274;43.980;2023-05-09T00:19:50;101218.81;;;2.03;66.09
69982;BME280;57319;56.274;43.980;2023-05-09T00:22:17;101220.38;;;2.01;66.35
69982;BME280;57319;56.274;43.980;2023-05-09T00:24:46;101222.94;;;2.01;66.82
69982;BME280;57319;56.274;43.980;2023-05-09T00:27:13;101228.66;;;1.97;66.57
69982;BME280;57319;56.274;43.980;2023-05-09T00:29:38;101222.72;;;1.97;66.10
69982;BME280;57319;56.274;43.980;2023-05-09T00:32:04;101224.38;;;1.96;66.09
69982;BME280;57319;56.274;43.980;2023-05-09T00:34:30;101219.31;;;1.96;66.24
69982;BME280;57319;56.274;43.980;2023-05-09T00:36:56;101221.72;;;1.93;65.76
69982;BME280;57319;56.274;43.980;2023-05-09T00:39:21;101219.91;;;1.91;65.40
69982;BME280;57319;56.274;43.980;2023-05-09T00:41:47;101218.31;;;1.93;65.42
69982;BME280;57319;56.274;43.980;2023-05-09T00:44:13;101226.78;;;1.93;65.17
69982;BME280;57319;56.274;43.980;2023-05-09T00:46:38;101226.72;;;1.92;64.89
69982;BME280;57319;56.274;43.980;2023-05-09T00:49:04;101225.94;;;1.93;64.58
69982;BME280;57319;56.274;43.980;2023-05-09T00:51:31;101230.13;;;1.92;64.84
69982;BME280;57319;56.274;43.980;2023-05-09T00:53:57;101217.34;;;1.91;64.44
69982;BME280;57319;56.274;43.980;2023-05-09T00:56:23;101225.03;;;1.92;64.73
69982;BME280;57319;56.274;43.980;2023-05-09T00:58:49;101224.91;;;1.89;64.67
69982;BME280;57319;56.274;43.980;2023-05-09T01:01:14;101224.91;;;1.89;65.17
69982;BME280;57319;56.274;43.980;2023-05-09T01:03:41;101220.78;;;1.91;65.34
69982;BME280;57319;56.274;43.980;2023-05-09T01:09:04;101228.59;;;1.96;66.61
69982;BME280;57319;56.274;43.980;2023-05-09T01:17:16;101233.47;;;1.91;66.78
69982;BME280;57319;56.274;43.980;2023-05-09T01:20:05;101228.22;;;1.88;67.72
69982;BME280;57319;56.274;43.980;2023-05-09T01:22:40;101235.00;;;1.88;67.75
69982;BME280;57319;56.274;43.980;2023-05-09T01:25:33;101234.88;;;1.84;67.71
69982;BME280;57319;56.274;43.980;2023-05-09T01:28:11;101233.91;;;1.82;68.35
69982;BME280;57319;56.274;43.980;2023-05-09T01:30:41;101240.72;;;1.83;69.29
69982;BME280;57319;56.274;43.980;2023-05-09T01:33:10;101239.81;;;1.81;69.46
69982;BME280;57319;56.274;43.980;2023-05-09T01:35:39;101244.13;;;1.84;70.45
69982;BME280;57319;56.274;43.980;2023-05-09T01:38:11;101238.41;;;1.88;70.98
69982;BME280;57319;56.274;43.980;2023-05-09T01:40:39;101239.34;;;1.90;71.32
69982;BME280;57319;56.274;43.980;2023-05-09T01:43:08;101239.56;;;1.95;71.32
69982;BME280;57319;56.274;43.980;2023-05-09T01:45:36;101240.56;;;1.98;71.52
69982;BME280;57319;56.274;43.980;2023-05-09T01:48:05;101234.91;;;2.04;72.33
69982;BME280;57319;56.274;43.980;2023-05-09T01:50:33;101236.72;;;2.07;73.00
69982;BME280;57319;56.274;43.980;2023-05-09T01:53:00;101233.44;;;2.09;73.50
69982;BME280;57319;56.274;43.980;2023-05-09T01:55:29;101237.88;;;2.13;74.37
69982;BME280;57319;56.274;43.980;2023-05-09T01:57:57;101233.66;;;2.14;74.25
69982;BME280;57319;56.274;43.980;2023-05-09T02:00:24;101240.53;;;2.16;73.63
69982;BME280;57319;56.274;43.980;2023-05-09T02:02:51;101232.91;;;2.16;73.46
69982;BME280;57319;56.274;43.980;2023-05-09T02:05:17;101235.59;;;2.19;73.36
69982;BME280;57319;56.274;43.980;2023-05-09T02:07:44;101235.66;;;2.21;73.26
69982;BME280;57319;56.274;43.980;2023-05-09T02:10:11;101229.84;;;2.24;73.49
69982;BME280;57319;56.274;43.980;2023-05-09T02:12:38;101237.81;;;2.31;73.81
69982;BME280;57319;56.274;43.980;2023-05-09T02:15:05;101238.00;;;2.36;73.79
69982;BME280;57319;56.274;43.980;2023-05-09T02:17:32;101238.19;;;2.39;74.38
69982;BME280;57319;56.274;43.980;2023-05-09T02:19:58;101237.63;;;2.46;74.42
69982;BME280;57319;56.274;43.980;2023-05-09T02:22:44;101242.13;;;2.52;74.14
69982;BME280;57319;56.274;43.980;2023-05-09T02:25:11;101242.31;;;2.57;73.54
69982;BME280;57319;56.274;43.980;2023-05-09T02:27:43;101243.31;;;2.60;73.39
69982;BME280;57319;56.274;43.980;2023-05-09T02:30:13;101244.53;;;2.68;73.14
69982;BME280;57319;56.274;43.980;2023-05-09T02:32:42;101243.19;;;2.77;72.62
69982;BME280;57319;56.274;43.980;2023-05-09T02:35:10;101241.84;;;2.85;72.34
69982;BME280;57319;56.274;43.980;2023-05-09T02:37:38;101243.81;;;2.92;72.01
69982;BME280;57319;56.274;43.980;2023-05-09T02:40:06;101244.22;;;3.01;72.01
69982;BME280;57319;56.274;43.980;2023-05-09T02:42:33;101245.34;;;3.08;71.60
69982;BME280;57319;56.274;43.980;2023-05-09T02:44:59;101240.56;;;3.16;71.20
69982;BME280;57319;56.274;43.980;2023-05-09T02:47:25;101246.03;;;3.25;70.92
69982;BME280;57319;56.274;43.980;2023-05-09T02:49:51;101243.06;;;3.35;70.09
69982;BME280;57319;56.274;43.980;2023-05-09T02:52:17;101245.97;;;3.45;69.58
69982;BME280;57319;56.274;43.980;2023-05-09T02:54:43;101245.53;;;3.55;67.87
69982;BME280;57319;56.274;43.980;2023-05-09T02:57:09;101253.41;;;3.61;65.08
69982;BME280;57319;56.274;43.980;2023-05-09T02:59:35;101255.63;;;3.74;64.66
69982;BME280;57319;56.274;43.980;2023-05-09T03:02:01;101256.06;;;3.85;62.75
69982;BME280;57319;56.274;43.980;2023-05-09T03:04:27;101256.31;;;3.92;60.45
69982;BME280;57319;56.274;43.980;2023-05-09T03:06:52;101259.06;;;3.98;61.65
69982;BME280;57319;56.274;43.980;2023-05-09T03:09:18;101259.25;;;4.02;62.58
69982;BME280;57319;56.274;43.980;2023-05-09T03:11:44;101264.59;;;4.08;62.79
69982;BME280;57319;56.274;43.980;2023-05-09T03:14:09;101260.53;;;4.14;63.50
69982;BME280;57319;56.274;43.980;2023-05-09T03:16:37;101260.69;;;4.18;64.03
69982;BME280;57319;56.274;43.980;2023-05-09T03:19:03;101265.22;;;4.25;64.00
69982;BME280;57319;56.274;43.980;2023-05-09T03:21:28;101269.66;;;4.31;63.15
69982;BME280;57319;56.274;43.980;2023-05-09T03:23:54;101268.91;;;4.34;62.74
69982;BME280;57319;56.274;43.980;2023-05-09T03:26:20;101266.50;;;4.37;63.42
69982;BME280;57319;56.274;43.980;2023-05-09T03:28:46;101263.31;;;4.43;63.95
69982;BME280;57319;56.274;43.980;2023-05-09T03:31:12;101264.31;;;4.48;64.04
69982;BME280;57319;56.274;43.980;2023-05-09T03:33:38;101255.97;;;4.52;63.71
69982;BME280;57319;56.274;43.980;2023-05-09T03:36:04;101262.22;;;4.60;63.79
69982;BME280;57319;56.274;43.980;2023-05-09T03:38:29;101260.78;;;4.68;63.99
69982;BME280;57319;56.274;43.980;2023-05-09T03:40:55;101260.22;;;4.75;63.30
69982;BME280;57319;56.274;43.980;2023-05-09T03:43:20;101257.06;;;4.83;61.97
69982;BME280;57319;56.274;43.980;2023-05-09T03:45:46;101258.28;;;4.94;61.60
69982;BME280;57319;56.274;43.980;2023-05-09T03:48:12;101262.91;;;5.04;60.95
69982;BME280;57319;56.274;43.980;2023-05-09T03:50:37;101258.97;;;5.14;60.35
69982;BME280;57319;56.274;43.980;2023-05-09T03:53:03;101261.94;;;5.26;60.20
69982;BME280;57319;56.274;43.980;2023-05-09T03:55:29;101262.19;;;5.34;54.64
69982;BME280;57319;56.274;43.980;2023-05-09T03:57:55;101265.13;;;5.47;54.24
69982;BME280;57319;56.274;43.980;2023-05-09T04:00:21;101259.50;;;5.57;52.73
69982;BME280;57319;56.274;43.980;2023-05-09T04:02:47;101265.06;;;5.71;52.06
69982;BME280;57319;56.274;43.980;2023-05-09T04:05:13;101267.03;;;5.80;51.49
69982;BME280;57319;56.274;43.980;2023-05-09T04:07:39;101268.28;;;5.92;53.03
69982;BME280;57319;56.274;43.980;2023-05-09T04:10:06;101268.38;;;5.95;51.00
69982;BME280;57319;56.274;43.980;2023-05-09T04:12:32;101269.50;;;6.04;51.12
69982;BME280;57319;56.274;43.980;2023-05-09T04:14:57;101269.78;;;6.13;51.37
69982;BME280;57319;56.274;43.980;2023-05-09T04:17:23;101269.09;;;6.19;52.36
69982;BME280;57319;56.274;43.980;2023-05-09T04:19:49;101270.91;;;6.23;51.84
69982;BME280;57319;56.274;43.980;2023-05-09T04:22:15;101280.53;;;6.32;51.82
69982;BME280;57319;56.274;43.980;2023-05-09T04:24:40;101285.03;;;6.39;51.64
69982;BME280;57319;56.274;43.980;2023-05-09T04:27:06;101279.31;;;6.48;52.36
69982;BME280;57319;56.274;43.980;2023-05-09T04:29:32;101269.19;;;6.52;51.17
69982;BME280;57319;56.274;43.980;2023-05-09T04:31:58;101276.97;;;6.55;50.30
69982;BME280;57319;56.274;43.980;2023-05-09T04:34:24;101277.06;;;6.58;50.15
69982;BME280;57319;56.274;43.980;2023-05-09T04:36:50;101272.97;;;6.65;49.80
69982;BME280;57319;56.274;43.980;2023-05-09T04:39:16;101268.94;;;6.73;49.26
69982;BME280;57319;56.274;43.980;2023-05-09T04:41:42;101275.97;;;6.82;48.76
69982;BME280;57319;56.274;43.980;2023-05-09T04:44:09;101273.53;;;6.87;49.08
69982;BME280;57319;56.274;43.980;2023-05-09T04:46:35;101274.66;;;6.96;49.01
69982;BME280;57319;56.274;43.980;2023-05-09T04:49:00;101270.66;;;7.06;49.00
69982;BME280;57319;56.274;43.980;2023-05-09T04:51:26;101276.88;;;7.16;48.77
69982;BME280;57319;56.274;43.980;2023-05-09T04:53:52;101271.03;;;7.22;48.83
69982;BME280;57319;56.274;43.980;2023-05-09T04:56:17;101272.00;;;7.25;49.04
69982;BME280;57319;56.274;43.980;2023-05-09T04:58:43;101270.31;;;7.27;48.25
69982;BME280;57319;56.274;43.980;2023-05-09T05:01:08;101271.38;;;7.36;48.31
69982;BME280;57319;56.274;43.980;2023-05-09T05:03:34;101272.31;;;7.38;47.80
69982;BME280;57319;56.274;43.980;2023-05-09T05:06:00;101270.88;;;7.49;47.64
69982;BME280;57319;56.274;43.980;2023-05-09T05:08:26;101271.88;;;7.56;47.39
69982;BME280;57319;56.274;43.980;2023-05-09T05:10:51;101264.25;;;7.59;47.16
69982;BME280;57319;56.274;43.980;2023-05-09T05:13:17;101268.66;;;7.64;47.02
69982;BME280;57319;56.274;43.980;2023-05-09T05:15:42;101261.03;;;7.68;46.55
69982;BME280;57319;56.274;43.980;2023-05-09T05:18:08;101262.78;;;7.69;47.41
69982;BME280;57319;56.274;43.980;2023-05-09T05:20:34;101268.06;;;7.75;47.19
69982;BME280;57319;56.274;43.980;2023-05-09T05:23:00;101261.41;;;7.83;46.40
69982;BME280;57319;56.274;43.980;2023-05-09T05:25:25;101255.56;;;7.89;45.69
69982;BME280;57319;56.274;43.980;2023-05-09T05:27:51;101261.75;;;7.98;44.79
69982;BME280;57319;56.274;43.980;2023-05-09T05:30:17;101262.81;;;8.08;44.68
69982;BME280;57319;56.274;43.980;2023-05-09T05:32:43;101260.34;;;8.14;43.11
69982;BME280;57319;56.274;43.980;2023-05-09T05:35:09;101263.06;;;8.21;43.63
69982;BME280;57319;56.274;43.980;2023-05-09T05:37:37;101261.53;;;8.29;43.98
69982;BME280;57319;56.274;43.980;2023-05-09T05:40:04;101267.72;;;8.39;43.48
69982;BME280;57319;56.274;43.980;2023-05-09T05:42:31;101266.09;;;8.42;43.21
69982;BME280;57319;56.274;43.980;2023-05-09T05:44:56;101263.81;;;8.55;43.29
69982;BME280;57319;56.274;43.980;2023-05-09T05:47:25;101260.59;;;8.66;42.54
69982;BME280;57319;56.274;43.980;2023-05-09T05:49:51;101255.59;;;8.74;41.66
69982;BME280;57319;56.274;43.980;2023-05-09T05:52:16;101253.09;;;8.77;39.98
69982;BME280;57319;56.274;43.980;2023-05-09T05:54:42;101261.81;;;8.86;40.37
69982;BME280;57319;56.274;43.980;2023-05-09T05:57:08;101255.13;;;8.95;40.81
69982;BME280;57319;56.274;43.980;2023-05-09T05:59:33;101268.06;;;9.00;40.05
69982;BME280;57319;56.274;43.980;2023-05-09T06:01:59;101260.47;;;9.08;39.40
69982;BME280;57319;56.274;43.980;2023-05-09T06:04:25;101260.59;;;9.14;39.69
69982;BME280;57319;56.274;43.980;2023-05-09T06:06:50;101252.06;;;9.15;39.00
69982;BME280;57319;56.274;43.980;2023-05-09T06:09:16;101258.09;;;9.19;38.46
69982;BME280;57319;56.274;43.980;2023-05-09T06:11:41;101257.28;;;9.21;38.50
69982;BME280;57319;56.274;43.980;2023-05-09T06:14:07;101245.44;;;9.29;38.06
69982;BME280;57319;56.274;43.980;2023-05-09T06:16:33;101247.25;;;9.35;36.98
69982;BME280;57319;56.274;43.980;2023-05-09T06:18:58;101251.53;;;9.34;36.92
69982;BME280;57319;56.274;43.980;2023-05-09T06:21:24;101246.50;;;9.42;37.65
69982;BME280;57319;56.274;43.980;2023-05-09T06:23:50;101250.09;;;9.52;36.90
69982;BME280;57319;56.274;43.980;2023-05-09T06:26:16;101248.47;;;9.59;36.55
69982;BME280;57319;56.274;43.980;2023-05-09T06:28:41;101251.00;;;9.57;36.02
69982;BME280;57319;56.274;43.980;2023-05-09T06:31:07;101246.75;;;9.58;36.07
69982;BME280;57319;56.274;43.980;2023-05-09T06:33:33;101246.75;;;9.58;35.12
69982;BME280;57319;56.274;43.980;2023-05-09T06:35:58;101242.44;;;9.57;35.43
69982;BME280;57319;56.274;43.980;2023-05-09T06:38:24;101239.13;;;9.65;36.20
69982;BME280;57319;56.274;43.980;2023-05-09T06:40:50;101247.66;;;9.61;35.93
69982;BME280;57319;56.274;43.980;2023-05-09T06:43:15;101240.66;;;9.51;37.23
69982;BME280;57319;56.274;43.980;2023-05-09T06:45:41;101234.78;;;9.61;36.19
69982;BME280;57319;56.274;43.980;2023-05-09T06:48:07;101235.72;;;9.65;35.72
69982;BME280;57319;56.274;43.980;2023-05-09T06:50:33;101229.13;;;9.84;34.47
69982;BME280;57319;56.274;43.980;2023-05-09T06:52:58;101230.81;;;9.82;34.55
69982;BME280;57319;56.274;43.980;2023-05-09T06:55:24;101232.41;;;9.74;34.72
69982;BME280;57319;56.274;43.980;2023-05-09T06:57:50;101228.13;;;9.74;33.93
69982;BME280;57319;56.274;43.980;2023-05-09T07:00:16;101233.31;;;9.76;33.92
69982;BME280;57319;56.274;43.980;2023-05-09T07:02:41;101227.19;;;9.69;33.43
69982;BME280;57319;56.274;43.980;2023-05-09T07:05:10;101221.13;;;9.65;33.03
69982;BME280;57319;56.274;43.980;2023-05-09T07:07:36;101228.84;;;9.64;33.11
69982;BME280;57319;56.274;43.980;2023-05-09T07:10:01;101219.50;;;9.69;31.44
69982;BME280;57319;56.274;43.980;2023-05-09T07:12:31;101224.59;;;9.66;30.41
69982;BME280;57319;56.274;43.980;2023-05-09T07:14:56;101216.09;;;9.70;29.51
69982;BME280;57319;56.274;43.980;2023-05-09T07:17:22;101215.34;;;9.79;29.50
69982;BME280;57319;56.274;43.980;2023-05-09T07:19:50;101207.72;;;9.85;29.13
69982;BME280;57319;56.274;43.980;2023-05-09T07:22:15;101203.59;;;9.99;29.42
69982;BME280;57319;56.274;43.980;2023-05-09T07:24:41;101195.91;;;9.99;28.72
69982;BME280;57319;56.274;43.980;2023-05-09T07:27:08;101202.97;;;10.19;29.14
69982;BME280;57319;56.274;43.980;2023-05-09T07:29:34;101207.34;;;10.25;29.52
69982;BME280;57319;56.274;43.980;2023-05-09T07:32:00;101191.31;;;10.44;29.57
69982;BME280;57319;56.274;43.980;2023-05-09T07:34:25;101189.72;;;10.56;28.53
69982;BME280;57319;56.274;43.980;2023-05-09T07:36:51;101186.34;;;10.64;28.67
69982;BME280;57319;56.274;43.980;2023-05-09T07:39:17;101192.44;;;10.73;28.87
69982;BME280;57319;56.274;43.980;2023-05-09T07:41:42;101189.25;;;10.97;28.91
69982;BME280;57319;56.274;43.980;2023-05-09T07:44:08;101181.63;;;11.12;29.05
69982;BME280;57319;56.274;43.980;2023-05-09T07:46:35;101182.53;;;11.16;29.11
69982;BME280;57319;56.274;43.980;2023-05-09T07:49:02;101185.97;;;11.19;29.37
69982;BME280;57319;56.274;43.980;2023-05-09T07:51:28;101179.94;;;11.17;28.91
69982;BME280;57319;56.274;43.980;2023-05-09T07:53:54;101173.94;;;11.17;27.60
69982;BME280;57319;56.274;43.980;2023-05-09T07:56:21;101173.81;;;11.01;28.31
69982;BME280;57319;56.274;43.980;2023-05-09T07:58:47;101178.19;;;11.12;28.51
69982;BME280;57319;56.274;43.980;2023-05-09T08:01:13;101175.63;;;11.15;29.01
69982;BME280;57319;56.274;43.980;2023-05-09T08:03:39;101173.91;;;11.14;28.85
69982;BME280;57319;56.274;43.980;2023-05-09T08:06:04;101171.38;;;11.20;28.44
69982;BME280;57319;56.274;43.980;2023-05-09T08:08:30;101168.88;;;11.29;28.46
69982;BME280;57319;56.274;43.980;2023-05-09T08:10:56;101160.41;;;11.52;28.60
69982;BME280;57319;56.274;43.980;2023-05-09T08:13:22;101162.09;;;11.42;28.56
69982;BME280;57319;56.274;43.980;2023-05-09T08:15:48;101161.19;;;11.35;27.68
69982;BME280;57319;56.274;43.980;2023-05-09T08:18:13;101152.66;;;11.46;28.07
69982;BME280;57319;56.274;43.980;2023-05-09T08:20:39;101155.31;;;11.58;27.43
69982;BME280;57319;56.274;43.980;2023-05-09T08:23:06;101151.00;;;11.62;27.65
69982;BME280;57319;56.274;43.980;2023-05-09T08:25:32;101141.59;;;11.70;27.71
69982;BME280;57319;56.274;43.980;2023-05-09T08:27:58;101138.16;;;11.68;27.81
69982;BME280;57319;56.274;43.980;2023-05-09T08:30:23;101137.28;;;11.67;27.78
69982;BME280;57319;56.274;43.980;2023-05-09T08:32:49;101134.75;;;11.80;27.85
69982;BME280;57319;56.274;43.980;2023-05-09T08:35:15;101132.22;;;11.89;27.60
69982;BME280;57319;56.274;43.980;2023-05-09T08:37:41;101135.59;;;11.71;27.76
69982;BME280;57319;56.274;43.980;2023-05-09T08:40:06;101123.50;;;11.61;27.67
69982;BME280;57319;56.274;43.980;2023-05-09T08:42:35;101118.25;;;11.42;28.34
69982;BME280;57319;56.274;43.980;2023-05-09T08:45:07;101111.38;;;11.44;28.45
69982;BME280;57319;56.274;43.980;2023-05-09T08:47:35;101119.00;;;11.26;28.74
69982;BME280;57319;56.274;43.980;2023-05-09T08:50:02;101118.13;;;11.19;29.04
69982;BME280;57319;56.274;43.980;2023-05-09T08:52:32;101115.50;;;11.13;29.32
69982;BME280;57319;56.274;43.980;2023-05-09T08:54:59;101124.03;;;11.04;29.61
69982;BME280;57319;56.274;43.980;2023-05-09T08:57:27;101115.50;;;11.13;29.22
69982;BME280;57319;56.274;43.980;2023-05-09T08:59:54;101099.31;;;11.37;28.40
69982;BME280;57319;56.274;43.980;2023-05-09T09:02:20;101105.44;;;11.56;28.24
69982;BME280;57319;56.274;43.980;2023-05-09T09:04:46;101092.63;;;11.76;28.25
69982;BME280;57319;56.274;43.980;2023-05-09T09:07:13;101097.78;;;11.79;27.08
69982;BME280;57319;56.274;43.980;2023-05-09T09:09:43;101089.22;;;11.83;27.28
69982;BME280;57319;56.274;43.980;2023-05-09T09:12:10;101087.53;;;11.88;27.82
69982;BME280;57319;56.274;43.980;2023-05-09T09:14:38;101086.69;;;11.96;28.31
69982;BME280;57319;56.274;43.980;2023-05-09T09:17:07;101085.00;;;11.99;27.37
69982;BME280;57319;56.274;43.980;2023-05-09T09:19:39;101070.38;;;12.01;27.20
69982;BME280;57319;56.274;43.980;2023-05-09T09:22:10;101082.44;;;12.05;26.97
69982;BME280;57319;56.274;43.980;2023-05-09T09:24:38;101074.69;;;12.09;27.51
69982;BME280;57319;56.274;43.980;2023-05-09T09:27:05;101071.19;;;11.93;27.72
69982;BME280;57319;56.274;43.980;2023-05-09T09:29:31;101070.25;;;11.74;28.66
69982;BME280;57319;56.274;43.980;2023-05-09T09:32:00;101065.09;;;11.70;28.19
69982;BME280;57319;56.274;43.980;2023-05-09T09:34:26;101062.44;;;11.50;28.38
69982;BME280;57319;56.274;43.980;2023-05-09T09:36:52;101065.91;;;11.63;27.70
69982;BME280;57319;56.274;43.980;2023-05-09T09:39:18;101062.53;;;11.78;27.70
69982;BME280;57319;56.274;43.980;2023-05-09T09:41:44;101067.72;;;11.83;27.78
69982;BME280;57319;56.274;43.980;2023-05-09T09:44:14;101062.63;;;11.98;27.98
69982;BME280;57319;56.274;43.980;2023-05-09T09:46:54;101064.25;;;11.84;27.77
69982;BME280;57319;56.274;43.980;2023-05-09T09:49:24;101066.91;;;11.98;28.19
69982;BME280;57319;56.274;43.980;2023-05-09T09:51:52;101064.38;;;12.22;28.49
69982;BME280;57319;56.274;43.980;2023-05-09T09:54:18;101060.09;;;12.37;26.83
69982;BME280;57319;56.274;43.980;2023-05-09T09:56:48;101048.06;;;12.53;26.46
69982;BME280;57319;56.274;43.980;2023-05-09T09:59:19;101055.81;;;12.56;27.11
69982;BME280;57319;56.274;43.980;2023-05-09T10:01:59;101047.19;;;12.63;26.67
69982;BME280;57319;56.274;43.980;2023-05-09T10:04:28;101053.22;;;12.71;27.48
69982;BME280;57319;56.274;43.980;2023-05-09T10:06:59;101046.34;;;12.77;27.14
69982;BME280;57319;56.274;43.980;2023-05-09T10:09:26;101049.75;;;12.97;27.58
69982;BME280;57319;56.274;43.980;2023-05-09T10:11:53;101043.69;;;13.03;26.15
69982;BME280;57319;56.274;43.980;2023-05-09T10:14:24;101046.28;;;13.11;27.17
69982;BME280;57319;56.274;43.980;2023-05-09T10:16:53;101043.72;;;12.87;26.97
69982;BME280;57319;56.274;43.980;2023-05-09T10:19:20;101054.06;;;12.58;26.94
69982;BME280;57319;56.274;43.980;2023-05-09T10:24:19;101042.00;;;12.31;27.19
69982;BME280;57319;56.274;43.980;2023-05-09T10:26:48;101038.59;;;12.27;27.18
69982;BME280;57319;56.274;43.980;2023-05-09T10:29:16;101039.44;;;12.40;27.06
69982;BME280;57319;56.274;43.980;2023-05-09T10:31:48;101036.00;;;12.56;26.71
69982;BME280;57319;56.274;43.980;2023-05-09T10:34:27;101026.53;;;12.74;26.71
69982;BME280;57319;56.274;43.980;2023-05-09T10:36:54;101026.50;;;12.80;27.75
69982;BME280;57319;56.274;43.980;2023-05-09T10:39:21;101027.34;;;12.95;26.99
69982;BME280;57319;56.274;43.980;2023-05-09T10:41:46;101023.84;;;13.19;26.76
69982;BME280;57319;56.274;43.980;2023-05-09T10:44:14;101016.88;;;13.44;26.13
69982;BME280;57319;56.274;43.980;2023-05-09T10:46:40;101023.72;;;13.59;25.46
69982;BME280;57319;56.274;43.980;2023-05-09T10:49:07;101013.31;;;13.67;25.18
69982;BME280;57319;56.274;43.980;2023-05-09T10:51:32;101009.72;;;13.93;25.41
69982;BME280;57319;56.274;43.980;2023-05-09T10:53:59;101009.69;;;13.96;25.41
69982;BME280;57319;56.274;43.980;2023-05-09T10:58:52;101014.84;;;14.00;24.96
69982;BME280;57319;56.274;43.980;2023-05-09T11:01:46;101007.25;;;13.76;25.38
69982;BME280;57319;56.274;43.980;2023-05-09T11:04:16;101008.25;;;13.47;25.95
69982;BME280;57319;56.274;43.980;2023-05-09T11:06:45;101008.31;;;13.17;26.73
69982;BME280;57319;56.274;43.980;2023-05-09T11:09:35;101004.13;;;12.78;26.73
69982;BME280;57319;56.274;43.980;2023-05-09T11:14:44;100999.84;;;12.46;27.09
69982;BME280;57319;56.274;43.980;2023-05-09T11:17:29;101003.31;;;12.34;27.45
69982;BME280;57319;56.274;43.980;2023-05-09T11:19:59;100996.41;;;12.27;27.47
69982;BME280;57319;56.274;43.980;2023-05-09T11:22:27;100993.84;;;12.17;27.51
69982;BME280;57319;56.274;43.980;2023-05-09T11:25:04;100985.25;;;12.09;27.27
69982;BME280;57319;56.274;43.980;2023-05-09T11:27:45;100985.22;;;12.03;27.22
69982;BME280;57319;56.274;43.980;2023-05-09T11:30:17;100989.50;;;11.98;27.34
69982;BME280;57319;56.274;43.980;2023-05-09T11:32:50;100983.47;;;11.91;27.10
69982;BME280;57319;56.274;43.980;2023-05-09T11:35:17;100973.13;;;11.86;27.53
69982;BME280;57319;56.274;43.980;2023-05-09T11:37:50;100969.75;;;11.95;27.95
69982;BME280;57319;56.274;43.980;2023-05-09T11:40:18;100968.88;;;12.44;27.19
69982;BME280;57319;56.274;43.980;2023-05-09T11:42:48;100960.19;;;12.92;26.52
69982;BME280;57319;56.274;43.980;2023-05-09T11:45:15;100954.09;;;13.10;25.89
69982;BME280;57319;56.274;43.980;2023-05-09T11:47:41;100950.56;;;13.26;26.13
69982;BME280;57319;56.274;43.980;2023-05-09T11:50:08;100953.03;;;13.54;26.09
69982;BME280;57319;56.274;43.980;2023-05-09T11:52:35;100946.06;;;13.65;25.10
69982;BME280;57319;56.274;43.980;2023-05-09T11:55:05;100941.63;;;13.83;25.75
69982;BME280;57319;56.274;43.980;2023-05-09T11:57:31;100943.97;;;14.15;25.36
69982;BME280;57319;56.274;43.980;2023-05-09T11:59:58;100947.72;;;14.80;24.73
69982;BME280;57319;56.274;43.980;2023-05-09T12:02:24;100941.16;;;15.21;24.29
69982;BME280;57319;56.274;43.980;2023-05-09T12:04:50;100941.31;;;15.08;23.88
69982;BME280;57319;56.274;43.980;2023-05-09T12:07:16;100939.16;;;14.68;24.33
69982;BME280;57319;56.274;43.980;2023-05-09T12:09:42;100930.59;;;14.60;24.80
69982;BME280;57319;56.274;43.980;2023-05-09T12:12:09;100926.47;;;14.42;24.70
69982;BME280;57319;56.274;43.980;2023-05-09T12:14:36;100928.47;;;14.11;24.88
69982;BME280;57319;56.274;43.980;2023-05-09T12:17:02;100922.75;;;13.71;25.54
69982;BME280;57319;56.274;43.980;2023-05-09T12:19:28;100929.75;;;13.55;25.83
69982;BME280;57319;56.274;43.980;2023-05-09T12:21:55;100929.81;;;13.42;26.43
69982;BME280;57319;56.274;43.980;2023-05-09T12:24:22;100925.59;;;13.23;26.23
69982;BME280;57319;56.274;43.980;2023-05-09T12:26:49;100917.03;;;13.12;26.84
69982;BME280;57319;56.274;43.980;2023-05-09T12:29:15;100928.22;;;13.05;27.24
69982;BME280;57319;56.274;43.980;2023-05-09T12:31:42;100923.13;;;12.89;27.06
69982;BME280;57319;56.274;43.980;2023-05-09T12:34:08;100911.94;;;12.84;27.44
69982;BME280;57319;56.274;43.980;2023-05-09T12:36:35;100921.44;;;12.85;27.64
69982;BME280;57319;56.274;43.980;2023-05-09T12:39:06;100921.47;;;12.71;27.42
69982;BME280;57319;56.274;43.980;2023-05-09T12:41:33;100919.75;;;12.73;28.72
69982;BME280;57319;56.274;43.980;2023-05-09T12:43:59;100924.94;;;12.73;28.34
69982;BME280;57319;56.274;43.980;2023-05-09T12:46:25;100918.03;;;12.66;27.52
69982;BME280;57319;56.274;43.980;2023-05-09T12:48:51;100906.88;;;12.64;27.34
69982;BME280;57319;56.274;43.980;2023-05-09T12:51:17;100910.19;;;13.00;26.36
69982;BME280;57319;56.274;43.980;2023-05-09T12:53:47;100898.78;;;13.48;26.09
69982;BME280;57319;56.274;43.980;2023-05-09T12:56:19;100892.41;;;13.92;25.21
69982;BME280;57319;56.274;43.980;2023-05-09T12:58:52;100887.34;;;13.75;25.79
69982;BME280;57319;56.274;43.980;2023-05-09T13:01:19;100889.13;;;13.67;26.24